sensor_id;sensor_type;location;lat;lon;timestamp;temperature;humidity
22984;DHT22;11658;48.908;9.140;2023-05-10T03:02:47;12.40;99.90
22984;DHT22;11658;48.908;9.140;2023-05-10T03:05:13;12.40;99.90
22984;DHT22;11658;48.908;9.140;2023-05-10T03:07:38;12.40;99.90
22984;DHT22;11658;48.908;9.140;2023-05-10T03:10:04;12.40;99.90
22984;DHT22;11658;48.908;9.140;2023-05-10T03:15:18;12.40;99.90
22984;DHT22;11658;48.908;9.140;2023-05-10T03:18:05;12.50;99.90
22984;DHT22;11658;48.908;9.140;2023-05-10T03:20:41;12.50;99.90
22984;DHT22;11658;48.908;9.140;2023-05-10T03:23:21;12.50;99.90
22984;DHT22;11658;48.908;9.140;2023-05-10T03:25:48;12.50;99.90
22984;DHT22;11658;48.908;9.140;2023-05-10T03:28:14;12.50;99.90
22984;DHT22;11658;48.908;9.140;2023-05-10T03:30:41;12.50;99.90
22984;DHT22;11658;48.908;9.140;2023-05-10T03:33:08;12.50;99.90
22984;DHT22;11658;48.908;9.140;2023-05-10T03:35:34;12.50;99.90
22984;DHT22;11658;48.908;9.140;2023-05-10T03:38:00;12.50;99.90
22984;DHT22;11658;48.908;9.140;2023-05-10T03:40:26;12.60;99.90
22984;DHT22;11658;48.908;9.140;2023-05-10T03:42:54;12.60;99.90
22984;DHT22;11658;48.908;9.140;2023-05-10T03:45:20;12.60;99.90
22984;DHT22;11658;48.908;9.140;2023-05-10T03:47:46;12.60;99.90
22984;DHT22;11658;48.908;9.140;2023-05-10T03:50:11;12.70;99.90
22984;DHT22;11658;48.908;9.140;2023-05-10T03:52:37;12.60;99.90
22984;DHT22;11658;48.908;9.140;2023-05-10T03:55:05;12.60;99.90
22984;DHT22;11658;48.908;9.140;2023-05-10T03:57:30;12.70;99.90
22984;DHT22;11658;48.908;9.140;2023-05-10T03:59:56;12.60;99.90
22984;DHT22;11658;48.908;9.140;2023-05-10T04:02:22;12.60;99.90
22984;DHT22;11658;48.908;9.140;2023-05-10T04:04:47;12.60;99.90
22984;DHT22;11658;48.908;9.140;2023-05-10T04:07:13;12.60;99.90
22984;DHT22;11658;48.908;9.140;2023-05-10T04:09:40;12.60;99.90
22984;DHT22;11658;48.908;9.140;2023-05-10T04:12:06;12.60;99.90
22984;DHT22;11658;48.908;9.140;2023-05-10T04:14:31;12.70;99.90
22984;DHT22;11658;48.908;9.140;2023-05-10T04:16:57;12.60;99.90
22984;DHT22;11658;48.908;9.140;2023-05-10T04:19:22;12.60;99.90
22984;DHT22;11658;48.908;9.140;2023-05-10T04:21:48;12.60;99.90
22984;DHT22;11658;48.908;9.140;2023-05-10T04:24:14;12.70;99.90
22984;DHT22;11658;48.908;9.140;2023-05-10T04:26:40;12.70;99.90
22984;DHT22;11658;48.908;9.140;2023-05-10T04:29:05;12.70;99.90
22984;DHT22;11658;48.908;9.140;2023-05-10T04:31:31;12.70;99.90
22984;DHT22;11658;48.908;9.140;2023-05-10T04:33:56;12.70;99.90
22984;DHT22;11658;48.908;9.140;2023-05-10T04:36:22;12.80;99.90
22984;DHT22;11658;48.908;9.140;2023-05-10T04:38:48;12.80;99.90
22984;DHT22;11658;48.908;9.140;2023-05-10T04:41:13;12.70;99.90
22984;DHT22;11658;48.908;9.140;2023-05-10T04:43:39;12.30;99.90
22984;DHT22;11658;48.908;9.140;2023-05-10T04:46:05;12.70;99.90
22984;DHT22;11658;48.908;9.140;2023-05-10T04:48:31;12.70;99.90
22984;DHT22;11658;48.908;9.140;2023-05-10T04:50:57;12.80;99.90
22984;DHT22;11658;48.908;9.140;2023-05-10T04:53:22;12.90;99.90
22984;DHT22;11658;48.908;9.140;2023-05-10T04:55:48;12.80;99.90
22984;DHT22;11658;48.908;9.140;2023-05-10T04:58:14;13.00;99.90
22984;DHT22;11658;48.908;9.140;2023-05-10T05:00:40;13.00;99.90
22984;DHT22;11658;48.908;9.140;2023-05-10T05:03:05;13.00;99.90
22984;DHT22;11658;48.908;9.140;2023-05-10T05:05:31;13.00;99.90
22984;DHT22;11658;48.908;9.140;2023-05-10T05:07:57;13.00;99.90
22984;DHT22;11658;48.908;9.140;2023-05-10T05:10:22;13.00;99.90
22984;DHT22;11658;48.908;9.140;2023-05-10T05:12:48;13.10;99.90
22984;DHT22;11658;48.908;9.140;2023-05-10T05:15:13;13.20;99.90
22984;DHT22;11658;48.908;9.140;2023-05-10T05:17:40;13.30;99.90
22984;DHT22;11658;48.908;9.140;2023-05-10T05:20:06;13.30;99.90
22984;DHT22;11658;48.908;9.140;2023-05-10T05:22:33;13.40;99.90
22984;DHT22;11658;48.908;9.140;2023-05-10T05:24:58;13.60;99.90
22984;DHT22;11658;48.908;9.140;2023-05-10T05:27:24;13.70;99.90
22984;DHT22;11658;48.908;9.140;2023-05-10T05:29:55;14.00;99.90
22984;DHT22;11658;48.908;9.140;2023-05-10T05:32:22;14.20;99.90
22984;DHT22;11658;48.908;9.140;2023-05-10T05:34:47;14.10;99.90
22984;DHT22;11658;48.908;9.140;2023-05-10T05:37:14;14.00;99.90
22984;DHT22;11658;48.908;9.140;2023-05-10T05:39:40;13.90;99.90
22984;DHT22;11658;48.908;9.140;2023-05-10T05:42:05;13.90;99.90
22984;DHT22;11658;48.908;9.140;2023-05-10T05:44:31;13.70;99.90
22984;DHT22;11658;48.908;9.140;2023-05-10T05:46:56;13.80;99.90
22984;DHT22;11658;48.908;9.140;2023-05-10T05:49:22;13.80;99.90
22984;DHT22;11658;48.908;9.140;2023-05-10T05:51:48;13.80;99.90
22984;DHT22;11658;48.908;9.140;2023-05-10T05:54:15;13.80;99.90
22984;DHT22;11658;48.908;9.140;2023-05-10T05:56:41;13.80;99.90
22984;DHT22;11658;48.908;9.140;2023-05-10T05:59:07;13.80;99.90
22984;DHT22;11658;48.908;9.140;2023-05-10T06:01:32;13.70;99.90
22984;DHT22;11658;48.908;9.140;2023-05-10T06:03:58;13.60;99.90
22984;DHT22;11658;48.908;9.140;2023-05-10T06:06:23;13.60;99.90
22984;DHT22;11658;48.908;9.140;2023-05-10T06:08:49;13.60;99.90
22984;DHT22;11658;48.908;9.140;2023-05-10T06:11:14;13.60;99.90
22984;DHT22;11658;48.908;9.140;2023-05-10T06:13:40;13.60;99.90
22984;DHT22;11658;48.908;9.140;2023-05-10T06:16:07;13.70;99.90
22984;DHT22;11658;48.908;9.140;2023-05-10T06:18:33;13.70;99.90
22984;DHT22;11658;48.908;9.140;2023-05-10T06:20:59;13.70;99.90
22984;DHT22;11658;48.908;9.140;2023-05-10T06:23:24;13.90;99.90
22984;DHT22;11658;48.908;9.140;2023-05-10T06:25:51;13.90;99.90
22984;DHT22;11658;48.908;9.140;2023-05-10T06:28:16;14.00;99.90
22984;DHT22;11658;48.908;9.140;2023-05-10T06:30:42;14.00;99.90
22984;DHT22;11658;48.908;9.140;2023-05-10T06:33:08;14.00;99.90
22984;DHT22;11658;48.908;9.140;2023-05-10T06:35:34;14.00;99.90
22984;DHT22;11658;48.908;9.140;2023-05-10T06:37:59;14.10;99.90
22984;DHT22;11658;48.908;9.140;2023-05-10T06:40:25;14.20;99.90
22984;DHT22;11658;48.908;9.140;2023-05-10T06:42:51;14.30;99.90
22984;DHT22;11658;48.908;9.140;2023-05-10T06:45:17;14.40;99.90
22984;DHT22;11658;48.908;9.140;2023-05-10T06:47:42;14.30;99.90
22984;DHT22;11658;48.908;9.140;2023-05-10T06:50:09;14.30;99.90
22984;DHT22;11658;48.908;9.140;2023-05-10T06:52:35;14.40;99.90
22984;DHT22;11658;48.908;9.140;2023-05-10T06:55:01;14.40;99.90
22984;DHT22;11658;48.908;9.140;2023-05-10T06:57:26;14.40;99.90
22984;DHT22;11658;48.908;9.140;2023-05-10T06:59:52;14.50;99.90
22984;DHT22;11658;48.908;9.140;2023-05-10T07:02:18;14.60;99.90
22984;DHT22;11658;48.908;9.140;2023-05-10T07:04:44;14.90;99.90
22984;DHT22;11658;48.908;9.140;2023-05-10T07:07:09;15.00;99.90
22984;DHT22;11658;48.908;9.140;2023-05-10T07:09:35;15.10;99.90
22984;DHT22;11658;48.908;9.140;2023-05-10T07:12:01;15.00;99.90
22984;DHT22;11658;48.908;9.140;2023-05-10T07:14:27;15.00;99.90
22984;DHT22;11658;48.908;9.140;2023-05-10T07:16:53;15.00;99.90
22984;DHT22;11658;48.908;9.140;2023-05-10T07:19:18;15.10;99.90
22984;DHT22;11658;48.908;9.140;2023-05-10T07:21:44;15.20;99.90
22984;DHT22;11658;48.908;9.140;2023-05-10T07:24:10;15.20;99.90
22984;DHT22;11658;48.908;9.140;2023-05-10T07:26:36;15.30;99.90
22984;DHT22;11658;48.908;9.140;2023-05-10T07:29:01;15.30;99.90
22984;DHT22;11658;48.908;9.140;2023-05-10T07:31:27;15.70;99.90
22984;DHT22;11658;48.908;9.140;2023-05-10T07:33:53;15.70;99.90
22984;DHT22;11658;48.908;9.140;2023-05-10T07:36:19;15.80;99.90
22984;DHT22;11658;48.908;9.140;2023-05-10T07:38:44;15.60;99.90
22984;DHT22;11658;48.908;9.140;2023-05-10T07:41:11;15.50;99.90
22984;DHT22;11658;48.908;9.140;2023-05-10T07:43:37;15.50;99.90
22984;DHT22;11658;48.908;9.140;2023-05-10T07:46:02;15.40;99.90
22984;DHT22;11658;48.908;9.140;2023-05-10T07:48:28;15.40;99.90
22984;DHT22;11658;48.908;9.140;2023-05-10T07:50:53;15.20;99.90
22984;DHT22;11658;48.908;9.140;2023-05-10T07:53:19;15.20;99.90
22984;DHT22;11658;48.908;9.140;2023-05-10T07:55:50;15.10;99.90
22984;DHT22;11658;48.908;9.140;2023-05-10T07:58:16;15.10;99.90
22984;DHT22;11658;48.908;9.140;2023-05-10T08:00:41;15.20;99.90
22984;DHT22;11658;48.908;9.140;2023-05-10T08:03:07;15.30;99.90
22984;DHT22;11658;48.908;9.140;2023-05-10T08:05:32;15.20;99.90
22984;DHT22;11658;48.908;9.140;2023-05-10T08:07:58;15.20;99.90
22984;DHT22;11658;48.908;9.140;2023-05-10T08:10:25;15.20;99.90
22984;DHT22;11658;48.908;9.140;2023-05-10T08:12:51;15.20;99.90
22984;DHT22;11658;48.908;9.140;2023-05-10T08:15:16;15.20;99.90
22984;DHT22;11658;48.908;9.140;2023-05-10T08:17:42;15.30;99.90
22984;DHT22;11658;48.908;9.140;2023-05-10T08:20:08;15.40;99.90
22984;DHT22;11658;48.908;9.140;2023-05-10T08:22:34;15.40;99.90
22984;DHT22;11658;48.908;9.140;2023-05-10T08:25:00;15.60;99.90
22984;DHT22;11658;48.908;9.140;2023-05-10T08:27:25;15.60;99.90
22984;DHT22;11658;48.908;9.140;2023-05-10T08:29:51;15.60;99.90
22984;DHT22;11658;48.908;9.140;2023-05-10T08:32:17;15.90;99.90
22984;DHT22;11658;48.908;9.140;2023-05-10T08:34:43;15.70;99.90
22984;DHT22;11658;48.908;9.140;2023-05-10T08:37:08;15.90;99.90
22984;DHT22;11658;48.908;9.140;2023-05-10T08:39:36;16.10;99.90
22984;DHT22;11658;48.908;9.140;2023-05-10T08:42:03;16.00;99.90
22984;DHT22;11658;48.908;9.140;2023-05-10T08:44:32;15.90;99.90
22984;DHT22;11658;48.908;9.140;2023-05-10T08:46:59;15.80;99.90
22984;DHT22;11658;48.908;9.140;2023-05-10T08:49:31;15.90;99.90
22984;DHT22;11658;48.908;9.140;2023-05-10T08:51:57;16.00;99.90
22984;DHT22;11658;48.908;9.140;2023-05-10T08:54:25;16.30;99.90
22984;DHT22;11658;48.908;9.140;2023-05-10T08:56:50;16.60;99.90
22984;DHT22;11658;48.908;9.140;2023-05-10T08:59:17;16.80;99.90
22984;DHT22;11658;48.908;9.140;2023-05-10T09:01:43;16.80;99.90
22984;DHT22;11658;48.908;9.140;2023-05-10T09:04:10;16.40;99.90
22984;DHT22;11658;48.908;9.140;2023-05-10T09:06:36;16.20;99.90
22984;DHT22;11658;48.908;9.140;2023-05-10T09:09:01;16.10;99.90
22984;DHT22;11658;48.908;9.140;2023-05-10T09:11:28;15.90;99.90
22984;DHT22;11658;48.908;9.140;2023-05-10T09:13:55;15.70;99.90
22984;DHT22;11658;48.908;9.140;2023-05-10T09:16:22;15.60;99.90
22984;DHT22;11658;48.908;9.140;2023-05-10T09:18:48;15.60;99.90
22984;DHT22;11658;48.908;9.140;2023-05-10T09:21:14;15.60;99.90
22984;DHT22;11658;48.908;9.140;2023-05-10T09:23:47;15.70;99.90
22984;DHT22;11658;48.908;9.140;2023-05-10T09:26:15;16.00;99.90
22984;DHT22;11658;48.908;9.140;2023-05-10T09:28:55;16.20;99.90
22984;DHT22;11658;48.908;9.140;2023-05-10T09:31:21;16.20;99.90
22984;DHT22;11658;48.908;9.140;2023-05-10T09:33:48;16.20;99.90
22984;DHT22;11658;48.908;9.140;2023-05-10T09:36:15;16.20;99.90
22984;DHT22;11658;48.908;9.140;2023-05-10T09:38:48;16.20;99.90
22984;DHT22;11658;48.908;9.140;2023-05-10T09:41:21;16.60;99.90
22984;DHT22;11658;48.908;9.140;2023-05-10T09:43:48;17.30;99.90
22984;DHT22;11658;48.908;9.140;2023-05-10T09:46:15;17.50;99.90
22984;DHT22;11658;48.908;9.140;2023-05-10T09:48:49;17.70;99.90
22984;DHT22;11658;48.908;9.140;2023-05-10T09:51:19;17.50;99.90
22984;DHT22;11658;48.908;9.140;2023-05-10T09:53:45;17.70;99.90
22984;DHT22;11658;48.908;9.140;2023-05-10T09:56:11;17.60;99.90
22984;DHT22;11658;48.908;9.140;2023-05-10T09:58:37;17.60;99.90
22984;DHT22;11658;48.908;9.140;2023-05-10T10:01:11;17.60;99.90
22984;DHT22;11658;48.908;9.140;2023-05-10T10:03:42;17.80;99.90
22984;DHT22;11658;48.908;9.140;2023-05-10T10:06:08;17.30;99.90
22984;DHT22;11658;48.908;9.140;2023-05-10T10:08:34;17.50;99.90
22984;DHT22;11658;48.908;9.140;2023-05-10T10:11:00;17.30;99.90
22984;DHT22;11658;48.908;9.140;2023-05-10T10:13:26;17.30;99.90
22984;DHT22;11658;48.908;9.140;2023-05-10T10:15:52;17.10;99.90
22984;DHT22;11658;48.908;9.140;2023-05-10T10:18:19;16.70;99.90
22984;DHT22;11658;48.908;9.140;2023-05-10T10:20:49;16.70;99.90
22984;DHT22;11658;48.908;9.140;2023-05-10T10:23:15;16.90;99.90
22984;DHT22;11658;48.908;9.140;2023-05-10T10:25:40;17.10;99.90
22984;DHT22;11658;48.908;9.140;2023-05-10T10:31:26;17.00;99.90
22984;DHT22;11658;48.908;9.140;2023-05-10T10:34:19;17.20;99.90
22984;DHT22;11658;48.908;9.140;2023-05-10T10:36:47;17.00;99.90
22984;DHT22;11658;48.908;9.140;2023-05-10T10:39:14;16.90;99.90
22984;DHT22;11658;48.908;9.140;2023-05-10T10:41:48;16.70;99.90
22984;DHT22;11658;48.908;9.140;2023-05-10T10:44:24;16.90;99.90
22984;DHT22;11658;48.908;9.140;2023-05-10T10:49:32;17.00;99.90
22984;DHT22;11658;48.908;9.140;2023-05-10T10:55:17;16.80;99.90
22984;DHT22;11658;48.908;9.140;2023-05-10T10:57:50;16.90;99.90
22984;DHT22;11658;48.908;9.140;2023-05-10T11:00:29;16.70;99.90
22984;DHT22;11658;48.908;9.140;2023-05-10T11:03:14;16.20;99.90
22984;DHT22;11658;48.908;9.140;2023-05-10T11:05:48;16.50;99.90
22984;DHT22;11658;48.908;9.140;2023-05-10T11:08:31;16.60;99.90
22984;DHT22;11658;48.908;9.140;2023-05-10T11:13:46;16.20;99.90
22984;DHT22;11658;48.908;9.140;2023-05-10T11:16:23;16.50;99.90
22984;DHT22;11658;48.908;9.140;2023-05-10T11:21:19;16.70;99.90
22984;DHT22;11658;48.908;9.140;2023-05-10T11:23:50;17.10;99.90
22984;DHT22;11658;48.908;9.140;2023-05-10T11:26:16;17.30;99.90
22984;DHT22;11658;48.908;9.140;2023-05-10T11:28:45;16.90;99.90
22984;DHT22;11658;48.908;9.140;2023-05-10T11:31:14;17.40;99.90
22984;DHT22;11658;48.908;9.140;2023-05-10T11:33:50;17.90;99.90
22984;DHT22;11658;48.908;9.140;2023-05-10T11:38:48;17.50;99.90
22984;DHT22;11658;48.908;9.140;2023-05-10T11:41:15;17.40;99.90
22984;DHT22;11658;48.908;9.140;2023-05-10T11:43:42;17.40;99.90
22984;DHT22;11658;48.908;9.140;2023-05-10T11:46:10;17.70;99.90
22984;DHT22;11658;48.908;9.140;2023-05-10T11:48:39;17.80;99.90
22984;DHT22;11658;48.908;9.140;2023-05-10T11:51:04;18.00;99.90
22984;DHT22;11658;48.908;9.140;2023-05-10T11:53:31;18.10;99.90
22984;DHT22;11658;48.908;9.140;2023-05-10T11:56:07;18.30;99.90
22984;DHT22;11658;48.908;9.140;2023-05-10T11:58:34;17.70;99.90
22984;DHT22;11658;48.908;9.140;2023-05-10T12:01:00;17.50;99.90
22984;DHT22;11658;48.908;9.140;2023-05-10T12:03:27;17.40;99.90
22984;DHT22;11658;48.908;9.140;2023-05-10T12:05:54;17.10;99.90
22984;DHT22;11658;48.908;9.140;2023-05-10T12:08:22;16.50;99.90
22984;DHT22;11658;48.908;9.140;2023-05-10T12:10:48;17.50;99.90
22984;DHT22;11658;48.908;9.140;2023-05-10T12:13:14;17.40;99.90
22984;DHT22;11658;48.908;9.140;2023-05-10T12:15:41;17.70;99.90
22984;DHT22;11658;48.908;9.140;2023-05-10T12:18:09;17.50;99.90
22984;DHT22;11658;48.908;9.140;2023-05-10T12:20:36;17.30;99.90
22984;DHT22;11658;48.908;9.140;2023-05-10T12:23:02;17.00;99.90
22984;DHT22;11658;48.908;9.140;2023-05-10T12:25:33;16.90;99.90
22984;DHT22;11658;48.908;9.140;2023-05-10T12:28:02;16.80;99.90
22984;DHT22;11658;48.908;9.140;2023-05-10T12:30:31;17.00;99.90
22984;DHT22;11658;48.908;9.140;2023-05-10T12:35:33;16.50;99.90
22984;DHT22;11658;48.908;9.140;2023-05-10T12:37:59;16.40;99.90
22984;DHT22;11658;48.908;9.140;2023-05-10T12:40:25;16.40;99.90
22984;DHT22;11658;48.908;9.140;2023-05-10T12:42:51;16.20;99.90
22984;DHT22;11658;48.908;9.140;2023-05-10T12:45:18;16.30;99.90
22984;DHT22;11658;48.908;9.140;2023-05-10T12:47:43;16.70;99.90
22984;DHT22;11658;48.908;9.140;2023-05-10T12:50:09;17.20;99.90
22984;DHT22;11658;48.908;9.140;2023-05-10T12:52:35;16.90;99.90
22984;DHT22;11658;48.908;9.140;2023-05-10T12:55:01;17.00;99.90
22984;DHT22;11658;48.908;9.140;2023-05-10T12:57:28;17.00;99.90
22984;DHT22;11658;48.908;9.140;2023-05-10T12:59:54;16.90;99.90
22984;DHT22;11658;48.908;9.140;2023-05-10T13:02:20;17.10;99.90
22984;DHT22;11658;48.908;9.140;2023-05-10T13:04:47;16.90;99.90
22984;DHT22;11658;48.908;9.140;2023-05-10T13:07:12;17.10;99.90
22984;DHT22;11658;48.908;9.140;2023-05-10T13:09:39;16.90;99.90
22984;DHT22;11658;48.908;9.140;2023-05-10T13:12:04;17.20;99.90
22984;DHT22;11658;48.908;9.140;2023-05-10T13:14:31;17.60;99.90
22984;DHT22;11658;48.908;9.140;2023-05-10T13:16:56;17.50;99.90
22984;DHT22;11658;48.908;9.140;2023-05-10T13:19:22;17.30;99.90
22984;DHT22;11658;48.908;9.140;2023-05-10T13:21:47;17.20;99.90
22984;DHT22;11658;48.908;9.140;2023-05-10T13:24:13;17.30;99.90
22984;DHT22;11658;48.908;9.140;2023-05-10T13:26:42;17.50;99.90
22984;DHT22;11658;48.908;9.140;2023-05-10T13:29:08;17.60;99.90
22984;DHT22;11658;48.908;9.140;2023-05-10T13:31:34;17.20;99.90
22984;DHT22;11658;48.908;9.140;2023-05-10T13:34:01;17.00;99.90
22984;DHT22;11658;48.908;9.140;2023-05-10T13:36:27;17.20;99.90
22984;DHT22;11658;48.908;9.140;2023-05-10T13:38:53;17.30;99.90
22984;DHT22;11658;48.908;9.140;2023-05-10T13:41:18;17.50;99.90
22984;DHT22;11658;48.908;9.140;2023-05-10T13:43:44;17.50;99.90
22984;DHT22;11658;48.908;9.140;2023-05-10T13:46:10;17.70;99.90
22984;DHT22;11658;48.908;9.140;2023-05-10T13:48:35;17.60;99.90
22984;DHT22;11658;48.908;9.140;2023-05-10T13:51:02;17.60;99.90
22984;DHT22;11658;48.908;9.140;2023-05-10T13:53:28;17.50;99.90
22984;DHT22;11658;48.908;9.140;2023-05-10T13:55:53;17.30;99.90
22984;DHT22;11658;48.908;9.140;2023-05-10T13:58:19;17.70;99.90
22984;DHT22;11658;48.908;9.140;2023-05-10T14:00:45;17.20;99.90
22984;DHT22;11658;48.908;9.140;2023-05-10T14:03:10;17.20;99.90
22984;DHT22;11658;48.908;9.140;2023-05-10T14:05:36;17.30;99.90
22984;DHT22;11658;48.908;9.140;2023-05-10T14:08:02;17.10;99.90
22984;DHT22;11658;48.908;9.140;2023-05-10T14:10:28;17.40;99.90
22984;DHT22;11658;48.908;9.140;2023-05-10T14:12:53;17.20;99.90
22984;DHT22;11658;48.908;9.140;2023-05-10T14:15:19;17.30;99.90
22984;DHT22;11658;48.908;9.140;2023-05-10T14:17:44;17.40;99.90
22984;DHT22;11658;48.908;9.140;2023-05-10T14:20:10;17.10;99.90
22984;DHT22;11658;48.908;9.140;2023-05-10T14:22:36;17.00;99.90
22984;DHT22;11658;48.908;9.140;2023-05-10T14:25:02;17.00;99.90
22984;DHT22;11658;48.908;9.140;2023-05-10T14:27:28;17.20;99.90
22984;DHT22;11658;48.908;9.140;2023-05-10T14:29:53;17.20;99.90
22984;DHT22;11658;48.908;9.140;2023-05-10T14:32:19;17.30;99.90
22984;DHT22;11658;48.908;9.140;2023-05-10T14:34:44;17.40;99.90
22984;DHT22;11658;48.908;9.140;2023-05-10T14:37:13;17.50;99.90
22984;DHT22;11658;48.908;9.140;2023-05-10T14:39:39;17.70;99.90
22984;DHT22;11658;48.908;9.140;2023-05-10T14:42:05;17.70;99.90
22984;DHT22;11658;48.908;9.140;2023-05-10T14:44:31;17.60;99.90
22984;DHT22;11658;48.908;9.140;2023-05-10T14:46:56;17.70;99.90
22984;DHT22;11658;48.908;9.140;2023-05-10T14:49:22;17.80;99.90
22984;DHT22;11658;48.908;9.140;2023-05-10T14:51:50;17.80;99.90
22984;DHT22;11658;48.908;9.140;2023-05-10T14:54:15;17.80;99.90
22984;DHT22;11658;48.908;9.140;2023-05-10T14:56:41;17.70;99.90
22984;DHT22;11658;48.908;9.140;2023-05-10T14:59:07;17.80;99.90
22984;DHT22;11658;48.908;9.140;2023-05-10T15:01:33;17.80;99.90
22984;DHT22;11658;48.908;9.140;2023-05-10T15:04:02;18.00;99.90
22984;DHT22;11658;48.908;9.140;2023-05-10T15:06:32;18.20;99.90
22984;DHT22;11658;48.908;9.140;2023-05-10T15:08:57;18.40;99.90
22984;DHT22;11658;48.908;9.140;2023-05-10T15:11:23;18.30;99.90
22984;DHT22;11658;48.908;9.140;2023-05-10T15:13:49;18.30;99.90
22984;DHT22;11658;48.908;9.140;2023-05-10T15:16:14;18.40;99.90
22984;DHT22;11658;48.908;9.140;2023-05-10T15:18:40;18.20;99.90
22984;DHT22;11658;48.908;9.140;2023-05-10T15:21:06;18.50;99.90
22984;DHT22;11658;48.908;9.140;2023-05-10T15:23:31;18.60;99.90
22984;DHT22;11658;48.908;9.140;2023-05-10T15:25:57;18.50;99.90
22984;DHT22;11658;48.908;9.140;2023-05-10T15:28:23;18.70;99.90
22984;DHT22;11658;48.908;9.140;2023-05-10T15:30:48;18.60;99.90
22984;DHT22;11658;48.908;9.140;2023-05-10T15:33:14;18.30;99.90
22984;DHT22;11658;48.908;9.140;2023-05-10T15:35:39;17.70;99.90
22984;DHT22;11658;48.908;9.140;2023-05-10T15:38:06;17.60;99.90
22984;DHT22;11658;48.908;9.140;2023-05-10T15:40:32;17.80;99.90
22984;DHT22;11658;48.908;9.140;2023-05-10T15:42:58;18.00;99.90
22984;DHT22;11658;48.908;9.140;2023-05-10T15:45:23;17.90;99.90
22984;DHT22;11658;48.908;9.140;2023-05-10T15:47:49;17.90;99.90
22984;DHT22;11658;48.908;9.140;2023-05-10T15:50:15;18.00;99.90
22984;DHT22;11658;48.908;9.140;2023-05-10T15:52:41;18.10;99.90
22984;DHT22;11658;48.908;9.140;2023-05-10T15:55:08;18.20;99.90
22984;DHT22;11658;48.908;9.140;2023-05-10T15:57:38;18.30;99.90
22984;DHT22;11658;48.908;9.140;2023-05-10T16:00:05;18.30;99.90
22984;DHT22;11658;48.908;9.140;2023-05-10T16:02:31;18.10;99.90
22984;DHT22;11658;48.908;9.140;2023-05-10T16:04:56;17.80;99.90
22984;DHT22;11658;48.908;9.140;2023-05-10T16:07:22;17.90;99.90
22984;DHT22;11658;48.908;9.140;2023-05-10T16:09:48;17.80;99.90
22984;DHT22;11658;48.908;9.140;2023-05-10T16:12:14;17.50;99.90
22984;DHT22;11658;48.908;9.140;2023-05-10T16:14:39;17.50;99.90
22984;DHT22;11658;48.908;9.140;2023-05-10T16:17:05;17.70;99.90
22984;DHT22;11658;48.908;9.140;2023-05-10T16:19:32;17.60;99.90
22984;DHT22;11658;48.908;9.140;2023-05-10T16:21:57;17.60;99.90
22984;DHT22;11658;48.908;9.140;2023-05-10T16:24:24;17.50;99.90
22984;DHT22;11658;48.908;9.140;2023-05-10T16:26:50;17.30;99.90
22984;DHT22;11658;48.908;9.140;2023-05-10T16:29:15;17.20;99.90
22984;DHT22;11658;48.908;9.140;2023-05-10T16:31:41;17.20;99.90
22984;DHT22;11658;48.908;9.140;2023-05-10T16:34:07;17.20;99.90
22984;DHT22;11658;48.908;9.140;2023-05-10T16:36:32;17.20;99.90
22984;DHT22;11658;48.908;9.140;2023-05-10T16:38:58;17.20;99.90
22984;DHT22;11658;48.908;9.140;2023-05-10T16:41:24;17.10;99.90
22984;DHT22;11658;48.908;9.140;2023-05-10T16:43:50;17.20;99.90
22984;DHT22;11658;48.908;9.140;2023-05-10T16:46:15;17.10;99.90
22984;DHT22;11658;48.908;9.140;2023-05-10T16:48:41;17.20;99.90
22984;DHT22;11658;48.908;9.140;2023-05-10T16:51:06;17.10;99.90
22984;DHT22;11658;48.908;9.140;2023-05-10T16:53:32;17.00;99.90
22984;DHT22;11658;48.908;9.140;2023-05-10T16:55:58;17.00;99.90
22984;DHT22;11658;48.908;9.140;2023-05-10T16:58:24;16.80;99.90
22984;DHT22;11658;48.908;9.140;2023-05-10T17:00:49;16.80;99.90
22984;DHT22;11658;48.908;9.140;2023-05-10T17:03:15;16.90;99.90
22984;DHT22;11658;48.908;9.140;2023-05-10T17:05:40;16.90;99.90
22984;DHT22;11658;48.908;9.140;2023-05-10T17:08:08;16.90;99.90
22984;DHT22;11658;48.908;9.140;2023-05-10T17:10:34;16.80;99.90
22984;DHT22;11658;48.908;9.140;2023-05-10T17:13:00;16.80;99.90
22984;DHT22;11658;48.908;9.140;2023-05-10T17:15:26;16.80;99.90
22984;DHT22;11658;48.908;9.140;2023-05-10T17:17:51;16.80;99.90
22984;DHT22;11658;48.908;9.140;2023-05-10T17:20:17;16.70;99.90
22984;DHT22;11658;48.908;9.140;2023-05-10T17:22:43;16.80;99.90
22984;DHT22;11658;48.908;9.140;2023-05-10T17:25:09;16.70;99.90
22984;DHT22;11658;48.908;9.140;2023-05-10T17:27:34;16.70;99.90
22984;DHT22;11658;48.908;9.140;2023-05-10T17:30:00;16.70;99.90
22984;DHT22;11658;48.908;9.140;2023-05-10T17:32:26;16.60;99.90
22984;DHT22;11658;48.908;9.140;2023-05-10T17:34:51;16.60;99.90
22984;DHT22;11658;48.908;9.140;2023-05-10T17:37:17;16.50;99.90
22984;DHT22;11658;48.908;9.140;2023-05-10T17:39:42;16.50;99.90
22984;DHT22;11658;48.908;9.140;2023-05-10T17:42:08;16.40;99.90
22984;DHT22;11658;48.908;9.140;2023-05-10T17:44:33;16.20;99.90
22984;DHT22;11658;48.908;9.140;2023-05-10T17:46:59;16.00;99.90
22984;DHT22;11658;48.908;9.140;2023-05-10T17:49:24;15.90;99.90
22984;DHT22;11658;48.908;9.140;2023-05-10T17:51:50;15.70;99.90
22984;DHT22;11658;48.908;9.140;2023-05-10T17:54:16;15.60;99.90
22984;DHT22;11658;48.908;9.140;2023-05-10T17:56:41;15.40;99.90
22984;DHT22;11658;48.908;9.140;2023-05-10T17:59:07;15.40;99.90
22984;DHT22;11658;48.908;9.140;2023-05-10T18:01:32;15.30;99.90
22984;DHT22;11658;48.908;9.140;2023-05-10T18:03:59;15.30;99.90
22984;DHT22;11658;48.908;9.140;2023-05-10T18:06:24;15.30;99.90
22984;DHT22;11658;48.908;9.140;2023-05-10T18:08:50;15.30;99.90
22984;DHT22;11658;48.908;9.140;2023-05-10T18:11:15;15.30;99.90
22984;DHT22;11658;48.908;9.140;2023-05-10T18:13:41;15.20;99.90
22984;DHT22;11658;48.908;9.140;2023-05-10T18:16:07;15.20;99.90
22984;DHT22;11658;48.908;9.140;2023-05-10T18:18:36;15.10;99.90
22984;DHT22;11658;48.908;9.140;2023-05-10T18:21:03;15.00;99.90
22984;DHT22;11658;48.908;9.140;2023-05-10T18:23:28;15.00;99.90
22984;DHT22;11658;48.908;9.140;2023-05-10T18:25:54;15.00;99.90
22984;DHT22;11658;48.908;9.140;2023-05-10T18:28:19;14.90;99.90
22984;DHT22;11658;48.908;9.140;2023-05-10T18:30:45;14.90;99.90
22984;DHT22;11658;48.908;9.140;2023-05-10T18:33:10;14.80;99.90
22984;DHT22;11658;48.908;9.140;2023-05-10T18:35:37;14.80;99.90
22984;DHT22;11658;48.908;9.140;2023-05-10T18:38:05;14.80;99.90
22984;DHT22;11658;48.908;9.140;2023-05-10T18:40:30;14.70;99.90
22984;DHT22;11658;48.908;9.140;2023-05-10T18:42:56;14.70;99.90
22984;DHT22;11658;48.908;9.140;2023-05-10T18:45:22;14.70;99.90
22984;DHT22;11658;48.908;9.140;2023-05-10T18:47:48;14.60;99.90
22984;DHT22;11658;48.908;9.140;2023-05-10T18:50:13;14.70;99.90